sensor_id;sensor_type;location;lat;lon;timestamp;P1;durP1;ratioP1;P2;durP2;ratioP2
54929;SDS011;40833;53.238;6.576;2022-09-16T00:00:16;5.27;;;0.63;;
54929;SDS011;40833;53.238;6.576;2022-09-16T00:02:42;9.43;;;1.00;;
54929;SDS011;40833;53.238;6.576;2022-09-16T00:05:08;18.90;;;0.97;;
54929;SDS011;40833;53.238;6.576;2022-09-16T00:07:34;8.40;;;0.37;;
54929;SDS011;40833;53.238;6.576;2022-09-16T00:10:00;11.70;;;1.90;;
54929;SDS011;40833;53.238;6.576;2022-09-16T00:12:25;4.47;;;0.60;;
54929;SDS011;40833;53.238;6.576;2022-09-16T00:14:52;7.07;;;1.07;;
54929;SDS011;40833;53.238;6.576;2022-09-16T00:17:18;11.37;;;0.83;;
54929;SDS011;40833;53.238;6.576;2022-09-16T00:19:44;10.33;;;1.33;;
54929;SDS011;40833;53.238;6.576;2022-09-16T00:22:10;3.60;;;0.40;;
54929;SDS011;40833;53.238;6.576;2022-09-16T00:24:36;8.20;;;0.60;;
54929;SDS011;40833;53.238;6.576;2022-09-16T00:27:02;6.97;;;0.40;;
54929;SDS011;40833;53.238;6.576;2022-09-16T00:29:28;3.67;;;0.40;;
54929;SDS011;40833;53.238;6.576;2022-09-16T00:31:54;7.10;;;0.93;;
54929;SDS011;40833;53.238;6.576;2022-09-16T00:34:20;3.80;;;0.40;;
54929;SDS011;40833;53.238;6.576;2022-09-16T00:36:45;6.70;;;0.20;;
54929;SDS011;40833;53.238;6.576;2022-09-16T00:39:11;5.67;;;0.47;;
54929;SDS011;40833;53.238;6.576;2022-09-16T00:41:38;7.63;;;0.57;;
54929;SDS011;40833;53.238;6.576;2022-09-16T00:44:06;5.73;;;0.50;;
54929;SDS011;40833;53.238;6.576;2022-09-16T00:46:52;4.50;;;0.60;;
54929;SDS011;40833;53.238;6.576;2022-09-16T00:49:20;9.20;;;0.47;;
54929;SDS011;40833;53.238;6.576;2022-09-16T00:51:50;3.57;;;0.43;;
54929;SDS011;40833;53.238;6.576;2022-09-16T00:54:20;6.07;;;0.47;;
54929;SDS011;40833;53.238;6.576;2022-09-16T00:56:46;9.43;;;0.77;;
54929;SDS011;40833;53.238;6.576;2022-09-16T00:59:18;7.83;;;0.80;;
54929;SDS011;40833;53.238;6.576;2022-09-16T01:01:48;7.82;;;0.40;;
54929;SDS011;40833;53.238;6.576;2022-09-16T01:04:21;8.93;;;0.23;;
54929;SDS011;40833;53.238;6.576;2022-09-16T01:06:51;6.53;;;0.40;;
54929;SDS011;40833;53.238;6.576;2022-09-16T01:09:18;8.57;;;0.30;;
54929;SDS011;40833;53.238;6.576;2022-09-16T01:11:47;5.97;;;0.53;;
54929;SDS011;40833;53.238;6.576;2022-09-16T01:14:12;4.77;;;0.33;;
54929;SDS011;40833;53.238;6.576;2022-09-16T01:27:32;5.47;;;0.60;;
54929;SDS011;40833;53.238;6.576;2022-09-16T01:36:19;10.33;;;0.37;;
54929;SDS011;40833;53.238;6.576;2022-09-16T01:38:59;8.27;;;0.90;;
54929;SDS011;40833;53.238;6.576;2022-09-16T01:45:14;4.47;;;0.43;;
54929;SDS011;40833;53.238;6.576;2022-09-16T01:50:14;4.80;;;0.40;;
54929;SDS011;40833;53.238;6.576;2022-09-16T01:53:22;11.17;;;0.60;;
54929;SDS011;40833;53.238;6.576;2022-09-16T01:55:56;8.57;;;0.57;;
54929;SDS011;40833;53.238;6.576;2022-09-16T02:01:08;9.10;;;0.50;;
54929;SDS011;40833;53.238;6.576;2022-09-16T02:03:41;5.13;;;0.43;;
54929;SDS011;40833;53.238;6.576;2022-09-16T02:06:17;8.93;;;0.43;;
54929;SDS011;40833;53.238;6.576;2022-09-16T02:08:50;6.27;;;0.30;;
54929;SDS011;40833;53.238;6.576;2022-09-16T02:11:22;8.80;;;0.50;;
54929;SDS011;40833;53.238;6.576;2022-09-16T02:13:50;6.03;;;0.30;;
54929;SDS011;40833;53.238;6.576;2022-09-16T02:16:37;11.70;;;1.40;;
54929;SDS011;40833;53.238;6.576;2022-09-16T02:19:25;11.17;;;0.50;;
54929;SDS011;40833;53.238;6.576;2022-09-16T02:22:12;10.00;;;0.43;;
54929;SDS011;40833;53.238;6.576;2022-09-16T02:24:44;12.97;;;1.23;;
54929;SDS011;40833;53.238;6.576;2022-09-16T02:27:14;5.00;;;0.40;;
54929;SDS011;40833;53.238;6.576;2022-09-16T02:29:49;10.57;;;0.40;;
54929;SDS011;40833;53.238;6.576;2022-09-16T02:32:19;10.13;;;0.50;;
54929;SDS011;40833;53.238;6.576;2022-09-16T02:34:49;8.13;;;0.50;;
54929;SDS011;40833;53.238;6.576;2022-09-16T02:37:29;7.30;;;0.50;;
54929;SDS011;40833;53.238;6.576;2022-09-16T02:40:01;8.43;;;0.57;;
54929;SDS011;40833;53.238;6.576;2022-09-16T02:42:30;7.97;;;0.43;;
54929;SDS011;40833;53.238;6.576;2022-09-16T02:44:57;11.10;;;0.40;;
54929;SDS011;40833;53.238;6.576;2022-09-16T02:50:13;8.53;;;0.50;;
54929;SDS011;40833;53.238;6.576;2022-09-16T02:55:36;9.20;;;0.60;;
54929;SDS011;40833;53.238;6.576;2022-09-16T02:58:07;4.97;;;0.30;;
54929;SDS011;40833;53.238;6.576;2022-09-16T03:00:35;18.73;;;0.90;;
54929;SDS011;40833;53.238;6.576;2022-09-16T03:03:05;5.23;;;0.63;;
54929;SDS011;40833;53.238;6.576;2022-09-16T03:05:30;5.77;;;0.60;;
54929;SDS011;40833;53.238;6.576;2022-09-16T03:07:56;11.30;;;0.73;;
54929;SDS011;40833;53.238;6.576;2022-09-16T03:10:24;2.90;;;0.40;;
54929;SDS011;40833;53.238;6.576;2022-09-16T03:12:55;9.00;;;0.67;;
54929;SDS011;40833;53.238;6.576;2022-09-16T03:15:35;14.90;;;1.67;;
54929;SDS011;40833;53.238;6.576;2022-09-16T03:21:31;14.83;;;0.70;;
54929;SDS011;40833;53.238;6.576;2022-09-16T03:24:39;10.23;;;0.60;;
54929;SDS011;40833;53.238;6.576;2022-09-16T03:27:14;7.10;;;0.60;;
54929;SDS011;40833;53.238;6.576;2022-09-16T03:32:21;7.67;;;1.00;;
54929;SDS011;40833;53.238;6.576;2022-09-16T03:37:58;6.60;;;0.70;;
54929;SDS011;40833;53.238;6.576;2022-09-16T03:40:26;6.47;;;0.67;;
54929;SDS011;40833;53.238;6.576;2022-09-16T03:42:53;10.90;;;0.80;;
54929;SDS011;40833;53.238;6.576;2022-09-16T03:45:21;9.57;;;0.70;;
54929;SDS011;40833;53.238;6.576;2022-09-16T03:47:48;8.50;;;0.43;;
54929;SDS011;40833;53.238;6.576;2022-09-16T03:50:16;9.37;;;0.87;;
54929;SDS011;40833;53.238;6.576;2022-09-16T03:52:43;17.77;;;2.20;;
54929;SDS011;40833;53.238;6.576;2022-09-16T03:55:08;8.70;;;0.90;;
54929;SDS011;40833;53.238;6.576;2022-09-16T03:57:37;10.03;;;1.10;;
54929;SDS011;40833;53.238;6.576;2022-09-16T04:00:04;13.53;;;1.10;;
54929;SDS011;40833;53.238;6.576;2022-09-16T04:02:32;15.50;;;0.60;;
54929;SDS011;40833;53.238;6.576;2022-09-16T04:04:57;13.80;;;0.70;;
54929;SDS011;40833;53.238;6.576;2022-09-16T04:07:23;14.00;;;1.10;;
54929;SDS011;40833;53.238;6.576;2022-09-16T04:09:49;12.60;;;1.00;;
54929;SDS011;40833;53.238;6.576;2022-09-16T04:12:15;15.90;;;0.70;;
54929;SDS011;40833;53.238;6.576;2022-09-16T04:14:40;13.73;;;0.93;;
54929;SDS011;40833;53.238;6.576;2022-09-16T04:17:06;10.50;;;1.30;;
54929;SDS011;40833;53.238;6.576;2022-09-16T04:19:32;12.50;;;0.93;;
54929;SDS011;40833;53.238;6.576;2022-09-16T04:21:57;12.17;;;1.43;;
54929;SDS011;40833;53.238;6.576;2022-09-16T04:24:23;10.73;;;1.10;;
54929;SDS011;40833;53.238;6.576;2022-09-16T04:26:49;8.00;;;0.60;;
54929;SDS011;40833;53.238;6.576;2022-09-16T04:29:14;13.97;;;0.93;;
54929;SDS011;40833;53.238;6.576;2022-09-16T04:31:41;11.13;;;0.67;;
54929;SDS011;40833;53.238;6.576;2022-09-16T04:34:07;9.97;;;0.90;;
54929;SDS011;40833;53.238;6.576;2022-09-16T04:36:35;12.27;;;0.77;;
54929;SDS011;40833;53.238;6.576;2022-09-16T04:39:02;12.53;;;1.23;;
54929;SDS011;40833;53.238;6.576;2022-09-16T04:41:27;8.33;;;1.23;;
54929;SDS011;40833;53.238;6.576;2022-09-16T04:43:54;13.53;;;0.87;;
54929;SDS011;40833;53.238;6.576;2022-09-16T04:46:21;13.30;;;0.60;;
54929;SDS011;40833;53.238;6.576;2022-09-16T04:48:48;14.47;;;1.10;;
54929;SDS011;40833;53.238;6.576;2022-09-16T04:51:15;17.73;;;0.90;;
54929;SDS011;40833;53.238;6.576;2022-09-16T04:53:41;7.93;;;0.50;;
54929;SDS011;40833;53.238;6.576;2022-09-16T04:56:09;11.53;;;1.30;;
54929;SDS011;40833;53.238;6.576;2022-09-16T04:58:39;13.90;;;0.80;;
54929;SDS011;40833;53.238;6.576;2022-09-16T05:01:07;22.20;;;0.70;;
54929;SDS011;40833;53.238;6.576;2022-09-16T05:03:41;12.53;;;1.63;;
54929;SDS011;40833;53.238;6.576;2022-09-16T05:06:14;14.87;;;1.37;;
54929;SDS011;40833;53.238;6.576;2022-09-16T05:08:41;11.77;;;0.50;;
54929;SDS011;40833;53.238;6.576;2022-09-16T05:11:11;15.63;;;0.87;;
54929;SDS011;40833;53.238;6.576;2022-09-16T05:13:38;13.32;;;1.17;;
54929;SDS011;40833;53.238;6.576;2022-09-16T05:16:05;8.93;;;1.20;;
54929;SDS011;40833;53.238;6.576;2022-09-16T05:18:36;7.47;;;0.50;;
54929;SDS011;40833;53.238;6.576;2022-09-16T05:21:04;11.63;;;1.00;;
54929;SDS011;40833;53.238;6.576;2022-09-16T05:23:31;15.53;;;1.00;;
54929;SDS011;40833;53.238;6.576;2022-09-16T05:26:01;10.37;;;0.70;;
54929;SDS011;40833;53.238;6.576;2022-09-16T05:28:32;10.20;;;1.30;;
54929;SDS011;40833;53.238;6.576;2022-09-16T05:31:17;8.27;;;1.10;;
54929;SDS011;40833;53.238;6.576;2022-09-16T05:33:46;14.00;;;0.93;;
54929;SDS011;40833;53.238;6.576;2022-09-16T05:36:18;15.63;;;2.20;;
54929;SDS011;40833;53.238;6.576;2022-09-16T05:38:44;12.03;;;1.87;;
54929;SDS011;40833;53.238;6.576;2022-09-16T05:41:10;18.10;;;1.90;;
54929;SDS011;40833;53.238;6.576;2022-09-16T05:43:36;14.97;;;0.97;;
54929;SDS011;40833;53.238;6.576;2022-09-16T05:46:03;10.23;;;1.00;;
54929;SDS011;40833;53.238;6.576;2022-09-16T05:48:31;10.83;;;1.00;;
54929;SDS011;40833;53.238;6.576;2022-09-16T05:50:58;12.47;;;1.63;;
54929;SDS011;40833;53.238;6.576;2022-09-16T05:53:26;13.07;;;0.90;;
54929;SDS011;40833;53.238;6.576;2022-09-16T05:56:03;11.90;;;0.93;;
54929;SDS011;40833;53.238;6.576;2022-09-16T05:58:30;14.50;;;1.03;;
54929;SDS011;40833;53.238;6.576;2022-09-16T06:01:04;18.00;;;1.27;;
54929;SDS011;40833;53.238;6.576;2022-09-16T06:03:32;12.50;;;1.30;;
54929;SDS011;40833;53.238;6.576;2022-09-16T06:06:43;14.17;;;0.80;;
54929;SDS011;40833;53.238;6.576;2022-09-16T06:08:52;12.43;;;1.08;;
54929;SDS011;40833;53.238;6.576;2022-09-16T06:11:19;14.17;;;2.10;;
54929;SDS011;40833;53.238;6.576;2022-09-16T06:13:45;13.83;;;1.10;;
54929;SDS011;40833;53.238;6.576;2022-09-16T06:16:11;9.03;;;0.70;;
54929;SDS011;40833;53.238;6.576;2022-09-16T06:18:38;16.20;;;1.20;;
54929;SDS011;40833;53.238;6.576;2022-09-16T06:21:06;14.40;;;1.50;;
54929;SDS011;40833;53.238;6.576;2022-09-16T06:23:33;16.60;;;1.40;;
54929;SDS011;40833;53.238;6.576;2022-09-16T06:26:04;9.73;;;0.73;;
54929;SDS011;40833;53.238;6.576;2022-09-16T06:28:32;11.98;;;1.02;;
54929;SDS011;40833;53.238;6.576;2022-09-16T06:31:09;7.23;;;0.70;;
54929;SDS011;40833;53.238;6.576;2022-09-16T06:33:36;15.10;;;1.80;;
54929;SDS011;40833;53.238;6.576;2022-09-16T06:36:03;15.87;;;1.23;;
54929;SDS011;40833;53.238;6.576;2022-09-16T06:38:30;15.73;;;0.90;;
54929;SDS011;40833;53.238;6.576;2022-09-16T06:40:57;18.50;;;1.00;;
54929;SDS011;40833;53.238;6.576;2022-09-16T06:43:27;10.43;;;0.97;;
54929;SDS011;40833;53.238;6.576;2022-09-16T06:45:57;11.83;;;0.90;;
54929;SDS011;40833;53.238;6.576;2022-09-16T06:48:28;13.10;;;0.60;;
54929;SDS011;40833;53.238;6.576;2022-09-16T06:51:01;13.20;;;0.90;;
54929;SDS011;40833;53.238;6.576;2022-09-16T06:53:28;17.97;;;1.00;;
54929;SDS011;40833;53.238;6.576;2022-09-16T06:55:58;10.63;;;1.00;;
54929;SDS011;40833;53.238;6.576;2022-09-16T06:58:25;19.30;;;1.87;;
54929;SDS011;40833;53.238;6.576;2022-09-16T07:00:54;12.53;;;0.90;;
54929;SDS011;40833;53.238;6.576;2022-09-16T07:03:20;21.60;;;2.23;;
54929;SDS011;40833;53.238;6.576;2022-09-16T07:05:59;12.13;;;1.13;;
54929;SDS011;40833;53.238;6.576;2022-09-16T07:08:31;17.10;;;1.02;;
54929;SDS011;40833;53.238;6.576;2022-09-16T07:11:00;16.10;;;1.00;;
54929;SDS011;40833;53.238;6.576;2022-09-16T07:13:27;15.70;;;0.80;;
54929;SDS011;40833;53.238;6.576;2022-09-16T07:15:53;13.57;;;1.10;;
54929;SDS011;40833;53.238;6.576;2022-09-16T07:18:19;8.37;;;1.00;;
54929;SDS011;40833;53.238;6.576;2022-09-16T07:20:45;12.00;;;1.00;;
54929;SDS011;40833;53.238;6.576;2022-09-16T07:23:11;16.93;;;1.43;;
54929;SDS011;40833;53.238;6.576;2022-09-16T07:25:36;15.57;;;1.00;;
54929;SDS011;40833;53.238;6.576;2022-09-16T07:28:02;10.43;;;0.80;;
54929;SDS011;40833;53.238;6.576;2022-09-16T07:30:28;16.80;;;1.30;;
54929;SDS011;40833;53.238;6.576;2022-09-16T07:32:55;22.83;;;1.67;;
54929;SDS011;40833;53.238;6.576;2022-09-16T07:35:21;16.90;;;1.87;;
54929;SDS011;40833;53.238;6.576;2022-09-16T07:37:47;11.07;;;0.80;;
54929;SDS011;40833;53.238;6.576;2022-09-16T07:40:12;14.10;;;0.87;;
54929;SDS011;40833;53.238;6.576;2022-09-16T07:42:38;13.27;;;0.90;;
54929;SDS011;40833;53.238;6.576;2022-09-16T07:45:05;14.67;;;1.23;;
54929;SDS011;40833;53.238;6.576;2022-09-16T07:47:31;10.57;;;0.87;;
54929;SDS011;40833;53.238;6.576;2022-09-16T07:49:57;10.90;;;1.10;;
54929;SDS011;40833;53.238;6.576;2022-09-16T07:52:23;12.57;;;1.00;;
54929;SDS011;40833;53.238;6.576;2022-09-16T07:54:55;15.97;;;1.60;;
54929;SDS011;40833;53.238;6.576;2022-09-16T07:57:21;15.53;;;1.20;;
54929;SDS011;40833;53.238;6.576;2022-09-16T07:59:48;14.10;;;1.40;;
54929;SDS011;40833;53.238;6.576;2022-09-16T08:02:14;14.83;;;1.43;;
54929;SDS011;40833;53.238;6.576;2022-09-16T08:04:40;15.07;;;1.07;;
54929;SDS011;40833;53.238;6.576;2022-09-16T08:07:07;13.77;;;0.90;;
54929;SDS011;40833;53.238;6.576;2022-09-16T08:09:33;22.00;;;1.73;;
54929;SDS011;40833;53.238;6.576;2022-09-16T08:12:00;25.30;;;2.23;;
54929;SDS011;40833;53.238;6.576;2022-09-16T08:14:27;22.40;;;1.67;;
54929;SDS011;40833;53.238;6.576;2022-09-16T08:16:53;15.37;;;1.87;;
54929;SDS011;40833;53.238;6.576;2022-09-16T08:19:19;16.90;;;2.30;;
54929;SDS011;40833;53.238;6.576;2022-09-16T08:21:46;13.57;;;1.47;;
54929;SDS011;40833;53.238;6.576;2022-09-16T08:24:13;14.90;;;1.10;;
54929;SDS011;40833;53.238;6.576;2022-09-16T08:26:38;11.23;;;1.40;;
54929;SDS011;40833;53.238;6.576;2022-09-16T08:29:04;12.80;;;0.80;;
54929;SDS011;40833;53.238;6.576;2022-09-16T08:31:31;12.30;;;2.17;;
54929;SDS011;40833;53.238;6.576;2022-09-16T08:33:57;14.17;;;1.13;;
54929;SDS011;40833;53.238;6.576;2022-09-16T08:36:23;9.07;;;0.57;;
54929;SDS011;40833;53.238;6.576;2022-09-16T08:38:51;7.40;;;0.50;;
54929;SDS011;40833;53.238;6.576;2022-09-16T08:46:58;16.63;;;1.57;;
54929;SDS011;40833;53.238;6.576;2022-09-16T08:49:34;10.77;;;0.97;;
54929;SDS011;40833;53.238;6.576;2022-09-16T08:52:09;10.63;;;1.17;;
54929;SDS011;40833;53.238;6.576;2022-09-16T08:57:36;15.10;;;1.70;;
54929;SDS011;40833;53.238;6.576;2022-09-16T09:00:09;14.85;;;1.52;;
54929;SDS011;40833;53.238;6.576;2022-09-16T09:05:14;16.23;;;1.42;;
54929;SDS011;40833;53.238;6.576;2022-09-16T09:07:54;18.73;;;1.77;;
54929;SDS011;40833;53.238;6.576;2022-09-16T09:13:20;12.57;;;1.40;;
54929;SDS011;40833;53.238;6.576;2022-09-16T09:21:46;15.53;;;1.30;;
54929;SDS011;40833;53.238;6.576;2022-09-16T09:26:49;12.47;;;0.97;;
54929;SDS011;40833;53.238;6.576;2022-09-16T09:29:26;10.93;;;0.70;;
54929;SDS011;40833;53.238;6.576;2022-09-16T09:35:06;9.30;;;0.60;;
54929;SDS011;40833;53.238;6.576;2022-09-16T09:40:37;8.60;;;0.80;;
54929;SDS011;40833;53.238;6.576;2022-09-16T09:43:22;16.33;;;1.07;;
54929;SDS011;40833;53.238;6.576;2022-09-16T09:46:11;24.97;;;1.80;;
54929;SDS011;40833;53.238;6.576;2022-09-16T09:48:50;5.82;;;0.50;;
54929;SDS011;40833;53.238;6.576;2022-09-16T09:51:27;5.73;;;0.27;;
54929;SDS011;40833;53.238;6.576;2022-09-16T09:54:39;7.60;;;0.30;;
54929;SDS011;40833;53.238;6.576;2022-09-16T09:59:47;10.37;;;0.97;;
54929;SDS011;40833;53.238;6.576;2022-09-16T10:02:21;11.43;;;1.37;;
54929;SDS011;40833;53.238;6.576;2022-09-16T10:04:47;12.10;;;0.80;;
54929;SDS011;40833;53.238;6.576;2022-09-16T10:07:15;13.03;;;1.30;;
54929;SDS011;40833;53.238;6.576;2022-09-16T10:09:52;17.53;;;1.20;;
54929;SDS011;40833;53.238;6.576;2022-09-16T10:12:26;14.43;;;1.77;;
54929;SDS011;40833;53.238;6.576;2022-09-16T10:14:56;14.10;;;1.40;;
54929;SDS011;40833;53.238;6.576;2022-09-16T10:17:23;15.40;;;0.97;;
54929;SDS011;40833;53.238;6.576;2022-09-16T10:20:02;25.20;;;2.33;;
54929;SDS011;40833;53.238;6.576;2022-09-16T10:22:32;9.83;;;0.97;;
54929;SDS011;40833;53.238;6.576;2022-09-16T10:25:00;11.37;;;1.47;;
54929;SDS011;40833;53.238;6.576;2022-09-16T10:27:29;22.87;;;1.60;;
54929;SDS011;40833;53.238;6.576;2022-09-16T10:30:04;9.48;;;0.63;;
54929;SDS011;40833;53.238;6.576;2022-09-16T10:33:01;9.30;;;1.00;;
54929;SDS011;40833;53.238;6.576;2022-09-16T10:35:26;7.40;;;1.40;;
54929;SDS011;40833;53.238;6.576;2022-09-16T10:40:56;13.17;;;1.20;;
54929;SDS011;40833;53.238;6.576;2022-09-16T10:43:30;12.50;;;1.00;;
54929;SDS011;40833;53.238;6.576;2022-09-16T10:45:56;11.30;;;0.90;;
54929;SDS011;40833;53.238;6.576;2022-09-16T10:48:26;11.10;;;1.47;;
54929;SDS011;40833;53.238;6.576;2022-09-16T10:50:58;16.93;;;1.50;;
54929;SDS011;40833;53.238;6.576;2022-09-16T10:53:34;8.23;;;1.23;;
54929;SDS011;40833;53.238;6.576;2022-09-16T10:56:03;17.83;;;1.50;;
54929;SDS011;40833;53.238;6.576;2022-09-16T10:58:30;11.30;;;1.00;;
54929;SDS011;40833;53.238;6.576;2022-09-16T11:01:04;13.50;;;1.00;;
54929;SDS011;40833;53.238;6.576;2022-09-16T11:06:23;17.53;;;1.73;;
54929;SDS011;40833;53.238;6.576;2022-09-16T11:09:04;16.67;;;1.02;;
54929;SDS011;40833;53.238;6.576;2022-09-16T11:14:34;12.37;;;1.00;;
54929;SDS011;40833;53.238;6.576;2022-09-16T11:17:10;10.60;;;1.02;;
54929;SDS011;40833;53.238;6.576;2022-09-16T11:30:54;12.83;;;1.20;;
54929;SDS011;40833;53.238;6.576;2022-09-16T11:33:35;15.25;;;1.58;;
54929;SDS011;40833;53.238;6.576;2022-09-16T11:36:13;16.33;;;1.30;;
54929;SDS011;40833;53.238;6.576;2022-09-16T11:41:42;23.80;;;2.00;;
54929;SDS011;40833;53.238;6.576;2022-09-16T11:57:23;13.07;;;1.48;;
54929;SDS011;40833;53.238;6.576;2022-09-16T11:59:54;17.05;;;1.70;;
54929;SDS011;40833;53.238;6.576;2022-09-16T12:05:13;14.83;;;1.47;;
54929;SDS011;40833;53.238;6.576;2022-09-16T12:10:25;24.17;;;2.57;;
54929;SDS011;40833;53.238;6.576;2022-09-16T12:13:08;16.67;;;2.30;;
54929;SDS011;40833;53.238;6.576;2022-09-16T12:21:15;15.35;;;2.17;;
54929;SDS011;40833;53.238;6.576;2022-09-16T12:23:50;20.53;;;2.17;;
54929;SDS011;40833;53.238;6.576;2022-09-16T12:26:26;18.60;;;2.20;;
54929;SDS011;40833;53.238;6.576;2022-09-16T12:31:38;18.80;;;2.30;;
54929;SDS011;40833;53.238;6.576;2022-09-16T12:34:16;19.70;;;2.90;;
54929;SDS011;40833;53.238;6.576;2022-09-16T12:36:45;20.37;;;2.40;;
54929;SDS011;40833;53.238;6.576;2022-09-16T12:39:16;20.57;;;2.70;;
54929;SDS011;40833;53.238;6.576;2022-09-16T12:58:45;7.73;;;0.60;;
54929;SDS011;40833;53.238;6.576;2022-09-16T13:01:35;10.47;;;0.57;;
54929;SDS011;40833;53.238;6.576;2022-09-16T13:06:44;9.03;;;0.90;;
54929;SDS011;40833;53.238;6.576;2022-09-16T13:09:22;7.43;;;0.83;;
54929;SDS011;40833;53.238;6.576;2022-09-16T13:12:06;6.27;;;0.43;;
54929;SDS011;40833;53.238;6.576;2022-09-16T13:17:10;10.60;;;1.30;;
54929;SDS011;40833;53.238;6.576;2022-09-16T13:19:38;8.70;;;0.60;;
54929;SDS011;40833;53.238;6.576;2022-09-16T13:37:44;3.20;;;0.40;;
54929;SDS011;40833;53.238;6.576;2022-09-16T13:40:18;13.13;;;1.47;;
54929;SDS011;40833;53.238;6.576;2022-09-16T13:43:03;9.63;;;0.70;;
54929;SDS011;40833;53.238;6.576;2022-09-16T13:45:36;8.30;;;0.50;;
54929;SDS011;40833;53.238;6.576;2022-09-16T13:48:17;4.53;;;0.80;;
54929;SDS011;40833;53.238;6.576;2022-09-16T13:50:48;14.70;;;0.97;;
54929;SDS011;40833;53.238;6.576;2022-09-16T13:53:19;8.38;;;0.90;;
54929;SDS011;40833;53.238;6.576;2022-09-16T13:55:50;12.70;;;1.27;;
54929;SDS011;40833;53.238;6.576;2022-09-16T13:58:24;12.10;;;1.27;;
54929;SDS011;40833;53.238;6.576;2022-09-16T14:03:43;10.53;;;1.77;;
54929;SDS011;40833;53.238;6.576;2022-09-16T14:06:30;16.83;;;1.63;;
54929;SDS011;40833;53.238;6.576;2022-09-16T14:09:08;15.50;;;1.93;;
54929;SDS011;40833;53.238;6.576;2022-09-16T14:11:56;13.67;;;1.13;;
54929;SDS011;40833;53.238;6.576;2022-09-16T14:14:42;9.33;;;1.50;;
54929;SDS011;40833;53.238;6.576;2022-09-16T14:17:27;14.53;;;1.13;;
54929;SDS011;40833;53.238;6.576;2022-09-16T14:20:01;13.93;;;1.10;;
54929;SDS011;40833;53.238;6.576;2022-09-16T14:22:27;11.13;;;0.77;;
54929;SDS011;40833;53.238;6.576;2022-09-16T14:24:54;16.53;;;1.67;;
54929;SDS011;40833;53.238;6.576;2022-09-16T14:27:29;11.30;;;1.20;;
54929;SDS011;40833;53.238;6.576;2022-09-16T14:30:02;12.83;;;1.10;;
54929;SDS011;40833;53.238;6.576;2022-09-16T14:32:30;8.97;;;1.07;;
54929;SDS011;40833;53.238;6.576;2022-09-16T14:35:01;9.47;;;0.83;;
54929;SDS011;40833;53.238;6.576;2022-09-16T14:37:32;9.53;;;1.23;;
54929;SDS011;40833;53.238;6.576;2022-09-16T14:40:17;12.10;;;1.00;;
54929;SDS011;40833;53.238;6.576;2022-09-16T14:42:47;9.50;;;1.60;;
54929;SDS011;40833;53.238;6.576;2022-09-16T14:45:18;8.30;;;0.90;;
54929;SDS011;40833;53.238;6.576;2022-09-16T14:47:44;11.43;;;0.90;;
54929;SDS011;40833;53.238;6.576;2022-09-16T14:50:21;5.90;;;0.60;;
54929;SDS011;40833;53.238;6.576;2022-09-16T14:53:00;8.20;;;0.50;;
54929;SDS011;40833;53.238;6.576;2022-09-16T14:55:29;4.67;;;0.87;;
54929;SDS011;40833;53.238;6.576;2022-09-16T14:57:57;8.10;;;0.40;;
54929;SDS011;40833;53.238;6.576;2022-09-16T15:00:25;4.40;;;0.60;;
54929;SDS011;40833;53.238;6.576;2022-09-16T15:03:00;9.80;;;0.82;;
54929;SDS011;40833;53.238;6.576;2022-09-16T15:05:34;13.70;;;0.90;;
54929;SDS011;40833;53.238;6.576;2022-09-16T15:08:16;9.30;;;0.93;;
54929;SDS011;40833;53.238;6.576;2022-09-16T15:10:52;8.80;;;0.60;;
54929;SDS011;40833;53.238;6.576;2022-09-16T15:13:34;11.90;;;0.88;;
54929;SDS011;40833;53.238;6.576;2022-09-16T15:16:03;46.37;;;2.27;;
54929;SDS011;40833;53.238;6.576;2022-09-16T15:18:56;11.53;;;1.00;;
54929;SDS011;40833;53.238;6.576;2022-09-16T15:21:28;8.70;;;0.97;;
54929;SDS011;40833;53.238;6.576;2022-09-16T15:23:58;18.27;;;1.00;;
54929;SDS011;40833;53.238;6.576;2022-09-16T15:26:28;16.80;;;1.30;;
54929;SDS011;40833;53.238;6.576;2022-09-16T15:28:59;19.87;;;1.83;;
54929;SDS011;40833;53.238;6.576;2022-09-16T15:31:27;23.38;;;2.03;;
54929;SDS011;40833;53.238;6.576;2022-09-16T15:33:56;18.20;;;1.10;;
54929;SDS011;40833;53.238;6.576;2022-09-16T15:36:34;14.50;;;1.03;;
54929;SDS011;40833;53.238;6.576;2022-09-16T15:39:05;14.13;;;1.00;;
54929;SDS011;40833;53.238;6.576;2022-09-16T15:41:46;15.27;;;1.23;;
54929;SDS011;40833;53.238;6.576;2022-09-16T15:44:12;15.80;;;1.10;;
54929;SDS011;40833;53.238;6.576;2022-09-16T15:46:46;22.37;;;1.33;;
54929;SDS011;40833;53.238;6.576;2022-09-16T15:49:12;20.83;;;1.67;;
54929;SDS011;40833;53.238;6.576;2022-09-16T15:51:44;18.97;;;1.20;;
54929;SDS011;40833;53.238;6.576;2022-09-16T15:56:57;18.33;;;1.40;;
54929;SDS011;40833;53.238;6.576;2022-09-16T15:59:31;13.88;;;1.38;;
54929;SDS011;40833;53.238;6.576;2022-09-16T16:01:59;20.98;;;1.40;;
54929;SDS011;40833;53.238;6.576;2022-09-16T16:04:30;11.53;;;2.30;;
54929;SDS011;40833;53.238;6.576;2022-09-16T16:06:58;11.63;;;1.47;;
54929;SDS011;40833;53.238;6.576;2022-09-16T16:11:59;21.33;;;1.60;;
54929;SDS011;40833;53.238;6.576;2022-09-16T16:14:30;18.17;;;1.63;;
54929;SDS011;40833;53.238;6.576;2022-09-16T16:17:00;10.13;;;1.10;;
54929;SDS011;40833;53.238;6.576;2022-09-16T16:19:31;25.23;;;2.03;;
54929;SDS011;40833;53.238;6.576;2022-09-16T16:21:57;22.97;;;1.40;;
54929;SDS011;40833;53.238;6.576;2022-09-16T16:24:26;25.13;;;2.47;;
54929;SDS011;40833;53.238;6.576;2022-09-16T16:26:54;23.10;;;2.23;;
54929;SDS011;40833;53.238;6.576;2022-09-16T16:29:20;24.73;;;2.13;;
54929;SDS011;40833;53.238;6.576;2022-09-16T16:34:39;22.30;;;2.13;;
54929;SDS011;40833;53.238;6.576;2022-09-16T16:37:09;15.30;;;1.17;;
54929;SDS011;40833;53.238;6.576;2022-09-16T16:39:37;22.03;;;1.33;;
54929;SDS011;40833;53.238;6.576;2022-09-16T16:42:02;20.30;;;2.10;;
54929;SDS011;40833;53.238;6.576;2022-09-16T16:44:30;18.97;;;1.43;;
54929;SDS011;40833;53.238;6.576;2022-09-16T16:46:56;14.73;;;1.50;;
54929;SDS011;40833;53.238;6.576;2022-09-16T16:49:22;19.20;;;1.33;;
54929;SDS011;40833;53.238;6.576;2022-09-16T16:51:48;14.13;;;1.17;;
54929;SDS011;40833;53.238;6.576;2022-09-16T16:54:16;16.77;;;1.53;;
54929;SDS011;40833;53.238;6.576;2022-09-16T16:56:43;16.97;;;1.47;;
54929;SDS011;40833;53.238;6.576;2022-09-16T16:59:10;18.80;;;1.47;;
54929;SDS011;40833;53.238;6.576;2022-09-16T17:01:36;11.97;;;0.70;;
54929;SDS011;40833;53.238;6.576;2022-09-16T17:04:02;12.83;;;1.37;;
54929;SDS011;40833;53.238;6.576;2022-09-16T17:06:29;17.20;;;1.20;;
54929;SDS011;40833;53.238;6.576;2022-09-16T17:08:56;19.07;;;1.33;;
54929;SDS011;40833;53.238;6.576;2022-09-16T17:11:22;13.70;;;0.60;;
54929;SDS011;40833;53.238;6.576;2022-09-16T17:13:50;7.07;;;0.97;;
54929;SDS011;40833;53.238;6.576;2022-09-16T17:16:21;19.30;;;0.70;;
54929;SDS011;40833;53.238;6.576;2022-09-16T17:18:49;18.40;;;1.42;;
54929;SDS011;40833;53.238;6.576;2022-09-16T17:21:16;14.63;;;0.97;;
54929;SDS011;40833;53.238;6.576;2022-09-16T17:23:45;38.97;;;1.80;;
54929;SDS011;40833;53.238;6.576;2022-09-16T17:26:12;29.17;;;2.37;;
54929;SDS011;40833;53.238;6.576;2022-09-16T17:28:39;33.97;;;2.60;;
54929;SDS011;40833;53.238;6.576;2022-09-16T17:31:17;14.70;;;1.60;;
54929;SDS011;40833;53.238;6.576;2022-09-16T17:33:44;19.40;;;1.93;;
54929;SDS011;40833;53.238;6.576;2022-09-16T17:36:12;28.80;;;2.87;;
54929;SDS011;40833;53.238;6.576;2022-09-16T17:38:39;36.87;;;2.57;;
54929;SDS011;40833;53.238;6.576;2022-09-16T17:41:06;31.80;;;3.37;;
54929;SDS011;40833;53.238;6.576;2022-09-16T17:43:33;35.30;;;2.77;;
54929;SDS011;40833;53.238;6.576;2022-09-16T17:46:00;34.60;;;2.90;;
54929;SDS011;40833;53.238;6.576;2022-09-16T17:48:27;52.10;;;3.70;;